Ana Sayfa
METAR-TAF:

METAR-TAF

Havaalanları :

Guilin, Çin

Enlem: 25-20N, Boylam: 110-18E, yükseklik: 166 m

Güncel hava durumu gözlemi

Rapor saat 04:00 UTC de 54 dakika önce yapıldı.
Rüzgar değişken yönden 2 kt
Sıcaklık 28°C
Nem 70%
Basınç 1011 hPa
Görüş mesafesi: 7000 m
2600 ft yükseklikte parçalı bulutlu
5300 ft yükseklikte parçalı çok bulutlu

METAR: ZGKL 250400Z VRB01MPS 7000 SCT026 BKN053 28/22 Q1011 NOSIG

Saat: 12:54 (04:54 UTC)

Tahmin

Rapor saat 19:15 UTC de 9 saat ve 39 dakika önce yapıldı.
Ayın 25'si saat 00 UTC'den ayın 25'si saat 24 UTC'ye kadar geçerli Tahmin
Rüzgar kuzeydoğudan 6 kt
Görüş mesafesi 10 km veya daha fazla
5000 ft yükseklikte parçalı çok bulutlu

TAF: ZGKL 241915Z 2500/2524 05003MPS 9999 BKN050 TX31/2507Z TN21/2522Z

4.000'den fazla havaalanı için hava durumu gözlemleri ve tahminleri (METAR ve TAF raporları).

Kullanılabilir istasyonlar harita üzerinde sarı ve kırmızı noktalarla gösterilir.

İstasyonun adını görmek için fareyi noktanın üzerinde gezdirin.

Sonrasında hava gözlem ve tahminlerini görmek için tıklayın.

Haritayı değiştirmek için: yaklaştırmak için siyah artı işaretli yeşil düğmeye ve uzaklaştırmak için de eksi işaretli düğmeye hızla tıklayın; bitişik haritalar için yeşil okları kullanın.


METAR-TAF: